createdAt,value
2023-03-31T00:00:58.116Z,1.35
2023-03-31T00:03:25.437Z,1.38
2023-03-31T00:06:00.428Z,1.05
2023-03-31T00:08:35.741Z,0.63
2023-03-31T00:11:07.244Z,0.38
2023-03-31T00:13:34.999Z,0.30
2023-03-31T00:16:05.576Z,0.50
2023-03-31T00:18:33.334Z,0.65
2023-03-31T00:21:24.399Z,0.30
2023-03-31T00:24:01.596Z,0.30
2023-03-31T00:26:29.608Z,0.40
2023-03-31T00:28:57.638Z,0.47
2023-03-31T00:31:25.359Z,0.45
2023-03-31T00:33:54.767Z,0.55
2023-03-31T00:36:27.342Z,0.85
2023-03-31T00:39:00.827Z,0.35
2023-03-31T00:41:29.849Z,0.40
2023-03-31T00:44:22.833Z,0.65
2023-03-31T00:46:55.265Z,0.55
2023-03-31T00:49:41.498Z,0.43
2023-03-31T00:52:23.439Z,0.40
2023-03-31T00:55:20.234Z,0.65
2023-03-31T00:57:48.033Z,0.45
2023-03-31T01:00:16.489Z,1.10
2023-03-31T01:02:52.133Z,0.50
2023-03-31T01:05:47.286Z,0.95
2023-03-31T01:08:20.120Z,0.65
2023-03-31T01:10:55.893Z,0.63
2023-03-31T01:13:24.696Z,0.63
2023-03-31T01:15:52.021Z,0.77
2023-03-31T01:18:22.775Z,0.80
2023-03-31T01:21:30.619Z,0.70
2023-03-31T01:24:35.807Z,0.57
2023-03-31T01:27:26.110Z,1.25
2023-03-31T01:30:38.120Z,1.02
2023-03-31T01:33:21.894Z,0.68
2023-03-31T01:36:04.454Z,0.63
2023-03-31T01:39:19.010Z,0.50
2023-03-31T01:44:29.250Z,0.50
2023-03-31T01:47:18.230Z,0.70
2023-03-31T01:50:08.878Z,1.00
2023-03-31T01:53:03.680Z,0.45
2023-03-31T01:55:39.330Z,0.73
2023-03-31T01:58:32.859Z,0.98
2023-03-31T02:01:08.521Z,0.80
2023-03-31T02:03:47.227Z,1.60
2023-03-31T02:06:26.331Z,1.55
2023-03-31T02:09:06.436Z,0.95
2023-03-31T02:11:34.904Z,0.90
2023-03-31T02:14:05.960Z,0.70
2023-03-31T02:16:37.955Z,0.98
2023-03-31T02:21:36.459Z,0.80
2023-03-31T02:24:13.143Z,0.68
2023-03-31T02:26:55.293Z,1.38
2023-03-31T02:29:23.256Z,0.60
2023-03-31T02:32:04.080Z,0.73
2023-03-31T02:34:31.524Z,0.65
2023-03-31T02:36:59.225Z,0.60
2023-03-31T02:39:33.162Z,0.60
2023-03-31T02:42:06.995Z,0.63
2023-03-31T02:44:35.667Z,0.63
2023-03-31T02:47:10.901Z,0.43
2023-03-31T02:49:42.112Z,0.85
2023-03-31T02:52:45.867Z,0.40
2023-03-31T02:55:32.261Z,0.80
2023-03-31T02:58:30.528Z,0.55
2023-03-31T03:01:44.549Z,0.57
2023-03-31T03:05:08.425Z,0.40
2023-03-31T03:07:46.430Z,0.50
2023-03-31T03:10:28.836Z,0.70
2023-03-31T03:15:46.272Z,0.90
2023-03-31T03:18:14.226Z,0.90
2023-03-31T03:20:43.441Z,0.85
2023-03-31T03:23:10.833Z,0.65
2023-03-31T03:25:38.661Z,1.00
2023-03-31T03:28:05.786Z,1.00
2023-03-31T03:30:32.732Z,0.95
2023-03-31T03:33:00.556Z,1.08
2023-03-31T03:35:27.953Z,0.90
2023-03-31T03:37:55.353Z,0.80
2023-03-31T03:40:22.803Z,0.57
2023-03-31T03:42:50.228Z,1.02
2023-03-31T03:45:17.696Z,1.05
2023-03-31T03:47:45.216Z,1.05
2023-03-31T03:50:15.933Z,0.80
2023-03-31T03:52:44.218Z,0.77
2023-03-31T03:55:12.205Z,1.02
2023-03-31T03:57:39.617Z,1.10
2023-03-31T04:00:12.294Z,1.00
2023-03-31T04:02:40.374Z,0.90
2023-03-31T04:05:08.114Z,0.55
2023-03-31T04:07:35.608Z,2.03
2023-03-31T04:10:02.970Z,0.73
2023-03-31T04:12:30.340Z,0.60
2023-03-31T04:14:57.694Z,0.70
2023-03-31T04:17:32.631Z,1.02
2023-03-31T04:20:09.882Z,1.10
2023-03-31T04:22:41.031Z,0.85
2023-03-31T04:25:14.832Z,0.85
2023-03-31T04:27:50.597Z,1.25
2023-03-31T04:30:24.547Z,1.00
2023-03-31T04:33:00.718Z,1.10
2023-03-31T04:35:48.669Z,1.20
2023-03-31T04:38:24.243Z,0.73
2023-03-31T04:40:54.349Z,1.40
2023-03-31T04:43:21.926Z,0.68
2023-03-31T04:45:50.573Z,1.05
2023-03-31T04:48:20.921Z,1.00
2023-03-31T04:50:48.246Z,1.08
2023-03-31T04:53:15.595Z,1.13
2023-03-31T04:55:42.886Z,1.33
2023-03-31T04:58:10.320Z,1.00
2023-03-31T05:00:37.665Z,1.25
2023-03-31T05:03:05.089Z,0.93
2023-03-31T05:05:32.654Z,1.58
2023-03-31T05:08:00.215Z,1.15
2023-03-31T05:10:27.530Z,1.13
2023-03-31T05:12:54.917Z,1.08
2023-03-31T05:15:22.340Z,1.45
2023-03-31T05:17:49.829Z,1.65
2023-03-31T05:20:17.633Z,1.63
2023-03-31T05:22:44.978Z,1.15
2023-03-31T05:25:18.710Z,1.40
2023-03-31T05:27:49.991Z,1.95
2023-03-31T05:30:18.218Z,1.10
2023-03-31T05:32:45.611Z,1.40
2023-03-31T05:35:13.005Z,0.93
2023-03-31T05:37:40.366Z,1.63
2023-03-31T05:40:09.220Z,1.48
2023-03-31T05:42:36.818Z,1.25
2023-03-31T05:45:06.007Z,1.33
2023-03-31T05:47:34.473Z,1.20
2023-03-31T05:50:03.984Z,1.08
2023-03-31T05:52:32.897Z,1.73
2023-03-31T05:55:00.332Z,1.67
2023-03-31T05:57:27.849Z,1.27
2023-03-31T05:59:55.441Z,1.50
2023-03-31T06:02:22.917Z,1.50
2023-03-31T06:04:50.369Z,2.75
2023-03-31T06:07:17.940Z,1.63
2023-03-31T06:09:46.629Z,2.33
2023-03-31T06:12:14.179Z,1.83
2023-03-31T06:14:41.578Z,1.80
2023-03-31T06:17:08.925Z,2.35
2023-03-31T06:19:36.410Z,1.92
2023-03-31T06:22:03.741Z,2.00
2023-03-31T06:24:31.057Z,2.05
2023-03-31T06:26:58.704Z,1.95
2023-03-31T06:29:27.222Z,1.90
2023-03-31T06:31:54.913Z,1.80
2023-03-31T06:34:22.549Z,1.80
2023-03-31T06:36:49.914Z,2.00
2023-03-31T06:39:17.261Z,2.30
2023-03-31T06:41:44.680Z,2.17
2023-03-31T06:44:19.333Z,2.53
2023-03-31T06:46:46.756Z,2.00
2023-03-31T06:49:14.128Z,1.85
2023-03-31T06:51:41.427Z,2.00
2023-03-31T06:54:08.774Z,1.88
2023-03-31T06:56:36.113Z,3.35
2023-03-31T06:59:03.451Z,1.85
2023-03-31T07:01:31.592Z,2.15
2023-03-31T07:03:59.138Z,1.77
2023-03-31T07:06:26.539Z,1.90
2023-03-31T07:08:53.914Z,2.70
2023-03-31T07:11:21.347Z,2.50
2023-03-31T07:13:48.757Z,2.13
2023-03-31T07:16:16.262Z,2.38
2023-03-31T07:18:45.225Z,2.20
2023-03-31T07:21:12.812Z,1.92
2023-03-31T07:23:40.599Z,2.63
2023-03-31T07:26:08.783Z,2.45
2023-03-31T07:28:36.550Z,2.60
2023-03-31T07:31:10.335Z,2.35
2023-03-31T07:33:37.731Z,2.03
2023-03-31T07:36:13.401Z,1.75
2023-03-31T07:38:43.494Z,2.22
2023-03-31T07:41:17.098Z,1.88
2023-03-31T07:43:45.067Z,1.90
2023-03-31T07:46:25.456Z,1.50
2023-03-31T07:48:53.799Z,2.17
2023-03-31T07:51:24.980Z,2.20
2023-03-31T07:53:52.639Z,1.77
2023-03-31T07:56:22.603Z,1.70
2023-03-31T07:58:51.423Z,1.83
2023-03-31T08:01:21.808Z,1.10
2023-03-31T08:03:49.854Z,1.17
2023-03-31T08:06:22.542Z,0.93
2023-03-31T08:08:50.741Z,1.65
2023-03-31T08:11:21.030Z,1.25
2023-03-31T08:13:48.558Z,1.30
2023-03-31T08:16:16.120Z,1.27
2023-03-31T08:18:43.609Z,1.50
2023-03-31T08:21:11.071Z,1.23
2023-03-31T08:23:38.442Z,2.25
2023-03-31T08:26:21.818Z,1.02
2023-03-31T08:28:50.982Z,1.33
2023-03-31T08:31:21.370Z,0.95
2023-03-31T08:33:48.835Z,0.82
2023-03-31T08:36:16.404Z,1.10
2023-03-31T08:38:48.014Z,0.68
2023-03-31T08:41:51.368Z,0.50
2023-03-31T08:44:42.509Z,0.50
2023-03-31T08:47:16.069Z,0.45
2023-03-31T08:50:05.651Z,0.52
2023-03-31T08:53:03.878Z,0.40
2023-03-31T08:55:52.906Z,0.55
2023-03-31T08:58:45.724Z,0.43
2023-03-31T09:01:26.704Z,0.57
2023-03-31T09:04:25.957Z,0.50
2023-03-31T09:07:29.629Z,0.35
2023-03-31T09:10:09.282Z,0.47
2023-03-31T09:13:09.552Z,0.57
2023-03-31T09:16:11.877Z,0.38
2023-03-31T09:18:46.590Z,0.77
2023-03-31T09:21:33.095Z,0.88
2023-03-31T09:24:03.724Z,0.57
2023-03-31T09:26:52.990Z,0.60
2023-03-31T09:29:41.021Z,0.47
2023-03-31T09:32:23.204Z,0.43
2023-03-31T09:35:18.492Z,0.30
2023-03-31T09:37:45.886Z,0.30
2023-03-31T09:40:21.570Z,0.17
2023-03-31T09:42:58.531Z,1.05
2023-03-31T09:45:26.119Z,0.17
2023-03-31T09:47:57.708Z,0.35
2023-03-31T09:50:26.699Z,0.10
2023-03-31T09:52:58.784Z,1.00
2023-03-31T09:55:40.337Z,0.22
2023-03-31T09:58:13.360Z,1.00
2023-03-31T10:01:04.286Z,0.55
2023-03-31T10:03:36.682Z,0.85
2023-03-31T10:06:10.848Z,0.50
2023-03-31T10:08:54.178Z,0.50
2023-03-31T10:11:21.935Z,0.63
2023-03-31T10:14:13.353Z,0.77
2023-03-31T10:16:50.610Z,0.80
2023-03-31T10:19:29.586Z,0.77
2023-03-31T10:22:22.889Z,0.82
2023-03-31T10:24:52.329Z,0.77
2023-03-31T10:27:25.820Z,0.45
2023-03-31T10:29:56.948Z,0.85
2023-03-31T10:32:39.189Z,0.40
2023-03-31T10:35:30.722Z,0.43
2023-03-31T10:38:06.588Z,0.60
2023-03-31T10:40:36.327Z,0.70
2023-03-31T10:43:17.052Z,0.40
2023-03-31T10:45:45.344Z,0.70
2023-03-31T10:48:40.804Z,0.45
2023-03-31T10:51:19.426Z,0.50
2023-03-31T10:53:53.049Z,0.63
2023-03-31T10:56:43.937Z,0.20
2023-03-31T10:59:31.087Z,0.70
2023-03-31T11:02:41.181Z,0.40
2023-03-31T11:05:59.672Z,0.40
2023-03-31T11:08:42.043Z,0.20
2023-03-31T11:11:56.254Z,0.68
2023-03-31T11:14:50.757Z,0.85
2023-03-31T11:17:41.226Z,0.85
2023-03-31T11:20:12.705Z,0.45
2023-03-31T11:23:16.651Z,0.22
2023-03-31T11:26:31.015Z,0.52
2023-03-31T11:29:47.752Z,0.55
2023-03-31T11:32:39.616Z,0.65
2023-03-31T11:35:15.986Z,0.25
2023-03-31T11:38:18.415Z,0.45
2023-03-31T11:41:02.525Z,0.50
2023-03-31T11:43:32.783Z,0.95
2023-03-31T11:46:08.130Z,0.43
2023-03-31T11:48:38.757Z,0.10
2023-03-31T11:51:10.391Z,0.10
2023-03-31T11:53:38.508Z,0.20
2023-03-31T11:56:07.583Z,0.10
2023-03-31T11:59:08.130Z,0.10
2023-03-31T12:01:46.319Z,0.20
2023-03-31T12:04:38.490Z,0.35
2023-03-31T12:07:28.366Z,0.10
2023-03-31T12:10:47.519Z,0.68
2023-03-31T12:13:27.851Z,0.25
2023-03-31T12:16:11.583Z,0.20
2023-03-31T12:18:44.984Z,0.25
2023-03-31T12:21:12.357Z,0.28
2023-03-31T12:23:44.215Z,0.10
2023-03-31T12:26:27.989Z,0.10
2023-03-31T12:29:00.505Z,0.25
2023-03-31T12:31:30.558Z,0.30
2023-03-31T12:34:10.651Z,0.40
2023-03-31T12:36:46.896Z,0.50
2023-03-31T12:39:35.979Z,0.55
2023-03-31T12:42:47.623Z,0.20
2023-03-31T12:46:01.735Z,0.10
2023-03-31T12:48:40.123Z,0.70
2023-03-31T12:51:41.770Z,0.30
2023-03-31T12:54:40.651Z,1.55
2023-03-31T12:57:08.056Z,0.43
2023-03-31T12:59:43.676Z,0.20
2023-03-31T13:02:14.899Z,0.47
2023-03-31T13:04:43.185Z,0.45
2023-03-31T13:07:28.260Z,0.10
2023-03-31T13:10:12.733Z,1.52
2023-03-31T13:12:40.251Z,0.13
2023-03-31T13:15:14.775Z,0.25
2023-03-31T13:17:57.365Z,0.20
2023-03-31T13:20:38.884Z,0.30
2023-03-31T13:23:11.450Z,0.03
2023-03-31T13:25:49.697Z,0.50
2023-03-31T13:28:22.926Z,0.43
2023-03-31T13:30:56.363Z,0.80
2023-03-31T13:33:37.314Z,0.05
2023-03-31T13:36:29.251Z,0.25
2023-03-31T13:39:08.436Z,0.50
2023-03-31T13:41:56.354Z,0.30
2023-03-31T13:44:54.081Z,0.10
2023-03-31T13:47:46.815Z,0.45
2023-03-31T13:50:36.090Z,0.20
2023-03-31T13:53:15.481Z,0.10
2023-03-31T13:55:56.685Z,0.10
2023-03-31T13:58:34.252Z,0.17
2023-03-31T14:01:45.714Z,0.20
2023-03-31T14:04:35.098Z,0.32
2023-03-31T14:07:30.530Z,0.40
2023-03-31T14:09:59.507Z,0.10
2023-03-31T14:12:37.931Z,0.10
2023-03-31T14:15:07.746Z,0.10
2023-03-31T14:17:38.890Z,0.10
2023-03-31T14:20:10.719Z,0.10
2023-03-31T14:22:59.960Z,0.10
2023-03-31T14:25:59.718Z,0.28
2023-03-31T14:29:12.604Z,0.20
2023-03-31T14:31:52.103Z,0.10
2023-03-31T14:34:28.409Z,0.20
2023-03-31T14:37:00.193Z,0.10
2023-03-31T14:39:32.811Z,0.10
2023-03-31T14:42:06.754Z,0.20
2023-03-31T14:44:34.923Z,0.20
2023-03-31T14:47:02.265Z,0.50
2023-03-31T14:49:39.711Z,0.10
2023-03-31T14:52:18.817Z,1.00
2023-03-31T14:54:47.667Z,0.20
2023-03-31T14:57:27.915Z,0.10
2023-03-31T14:59:55.925Z,0.20
2023-03-31T15:02:36.738Z,0.10
2023-03-31T15:05:07.635Z,0.20
2023-03-31T15:07:36.235Z,0.10
2023-03-31T15:10:06.241Z,0.20
2023-03-31T15:12:33.944Z,0.10
2023-03-31T15:15:07.112Z,0.20
2023-03-31T15:17:40.529Z,0.00
2023-03-31T15:20:38.655Z,0.10
2023-03-31T15:23:27.719Z,0.13
2023-03-31T15:26:04.124Z,0.25
2023-03-31T15:28:49.238Z,0.10
2023-03-31T15:31:17.161Z,0.03
2023-03-31T15:33:44.775Z,0.10
2023-03-31T15:36:13.264Z,0.17
2023-03-31T15:38:41.309Z,0.20
2023-03-31T15:41:16.949Z,0.20
2023-03-31T15:43:53.197Z,0.10
2023-03-31T15:46:39.291Z,0.30
2023-03-31T15:49:23.696Z,0.13
2023-03-31T15:51:53.060Z,0.52
2023-03-31T15:54:40.990Z,0.40
2023-03-31T15:57:10.205Z,0.17
2023-03-31T15:59:56.053Z,0.30
2023-03-31T16:02:27.968Z,0.30
2023-03-31T16:04:59.017Z,0.20
2023-03-31T16:07:30.684Z,0.30
2023-03-31T16:10:06.300Z,0.10
2023-03-31T16:12:59.627Z,0.20
2023-03-31T16:15:38.209Z,0.30
2023-03-31T16:18:13.677Z,0.22
2023-03-31T16:20:53.726Z,0.32
2023-03-31T16:23:28.069Z,0.30
2023-03-31T16:25:56.524Z,0.20
2023-03-31T16:28:27.226Z,0.30
2023-03-31T16:30:54.769Z,0.40
2023-03-31T16:33:24.517Z,0.30
2023-03-31T16:35:56.062Z,0.25
2023-03-31T16:38:28.808Z,0.43
2023-03-31T16:40:59.146Z,0.25
2023-03-31T16:43:31.326Z,0.50
2023-03-31T16:46:03.345Z,0.20
2023-03-31T16:48:36.332Z,0.98
2023-03-31T16:51:04.230Z,0.30
2023-03-31T16:53:34.518Z,0.00
2023-03-31T16:56:02.691Z,0.20
2023-03-31T16:58:30.414Z,0.10
2023-03-31T17:00:58.653Z,0.22
2023-03-31T17:03:26.587Z,0.50
2023-03-31T17:05:59.001Z,0.68
2023-03-31T17:08:28.209Z,0.10
2023-03-31T17:11:04.489Z,0.40
2023-03-31T17:13:32.583Z,0.10
2023-03-31T17:16:08.674Z,0.20
2023-03-31T17:18:43.649Z,0.20
2023-03-31T17:21:13.837Z,0.35
2023-03-31T17:23:41.584Z,0.30
2023-03-31T17:26:15.964Z,0.30
2023-03-31T17:28:43.805Z,0.10
2023-03-31T17:31:21.752Z,0.20
2023-03-31T17:33:49.315Z,0.30
2023-03-31T17:36:17.241Z,0.20
2023-03-31T17:38:45.061Z,0.68
2023-03-31T17:41:13.361Z,0.13
2023-03-31T17:43:44.439Z,0.10
2023-03-31T17:46:13.193Z,0.40
2023-03-31T17:48:41.958Z,0.20
2023-03-31T17:51:15.941Z,0.10
2023-03-31T17:53:45.375Z,0.20
2023-03-31T17:56:13.681Z,0.13
2023-03-31T17:58:41.544Z,0.20
2023-03-31T18:01:13.809Z,0.22
2023-03-31T18:03:41.331Z,0.20
2023-03-31T18:06:13.878Z,0.10
2023-03-31T18:08:42.953Z,0.50
2023-03-31T18:11:13.435Z,0.20
2023-03-31T18:13:41.618Z,0.38
2023-03-31T18:16:10.255Z,0.10
2023-03-31T18:18:37.916Z,0.10
2023-03-31T18:21:08.026Z,0.40
2023-03-31T18:23:35.902Z,0.35
2023-03-31T18:26:07.087Z,0.17
2023-03-31T18:28:34.458Z,0.30
2023-03-31T18:31:07.873Z,0.28
2023-03-31T18:33:38.297Z,0.20
2023-03-31T18:36:07.373Z,0.68
2023-03-31T18:38:36.902Z,0.35
2023-03-31T18:41:04.625Z,1.15
2023-03-31T18:43:33.385Z,0.30
2023-03-31T18:46:02.411Z,1.15
2023-03-31T18:48:30.175Z,1.63
2023-03-31T18:50:57.819Z,0.63
2023-03-31T18:53:25.940Z,0.40
2023-03-31T18:55:58.641Z,0.22
2023-03-31T18:58:29.182Z,0.20
2023-03-31T19:00:58.064Z,0.50
2023-03-31T19:03:27.073Z,0.40
2023-03-31T19:06:06.091Z,0.40
2023-03-31T19:08:33.544Z,0.40
2023-03-31T19:11:15.652Z,0.40
2023-03-31T19:13:44.022Z,0.50
2023-03-31T19:16:13.175Z,0.20
2023-03-31T19:18:41.090Z,0.40
2023-03-31T19:21:08.481Z,0.30
2023-03-31T19:23:35.962Z,0.38
2023-03-31T19:26:03.906Z,0.70
2023-03-31T19:28:31.693Z,0.40
2023-03-31T19:30:59.465Z,0.85
2023-03-31T19:33:27.642Z,0.25
2023-03-31T19:35:55.085Z,0.25
2023-03-31T19:38:22.530Z,0.50
2023-03-31T19:40:50.054Z,0.38
2023-03-31T19:43:23.714Z,0.30
2023-03-31T19:45:56.889Z,0.40
2023-03-31T19:48:26.472Z,0.30
2023-03-31T19:51:03.966Z,0.28
2023-03-31T19:53:31.709Z,0.40
2023-03-31T19:56:07.999Z,0.22
2023-03-31T19:58:36.580Z,0.85
2023-03-31T20:01:14.575Z,0.40
2023-03-31T20:03:42.088Z,0.43
2023-03-31T20:06:13.023Z,0.45
2023-03-31T20:08:42.559Z,0.65
2023-03-31T20:11:13.427Z,0.50
2023-03-31T20:13:42.562Z,0.50
2023-03-31T20:16:19.103Z,0.30
2023-03-31T20:19:01.202Z,0.30
2023-03-31T20:21:31.418Z,0.47
2023-03-31T20:23:59.015Z,0.30
2023-03-31T20:26:30.881Z,0.63
2023-03-31T20:28:58.869Z,0.50
2023-03-31T20:31:29.848Z,0.57
2023-03-31T20:33:57.725Z,0.50
2023-03-31T20:36:29.763Z,0.40
2023-03-31T20:38:57.628Z,0.17
2023-03-31T20:41:28.336Z,0.50
2023-03-31T20:43:55.942Z,0.20
2023-03-31T20:46:23.511Z,0.40
2023-03-31T20:48:54.990Z,0.75
2023-03-31T20:51:29.479Z,0.10
2023-03-31T20:53:58.446Z,0.47
2023-03-31T20:56:36.913Z,0.52
2023-03-31T20:59:06.912Z,0.75
2023-03-31T21:01:36.638Z,0.68
2023-03-31T21:04:06.686Z,0.20
2023-03-31T21:06:43.299Z,0.60
2023-03-31T21:09:12.244Z,0.73
2023-03-31T21:11:40.768Z,0.50
2023-03-31T21:14:12.679Z,0.52
2023-03-31T21:16:40.283Z,0.57
2023-03-31T21:19:07.713Z,0.63
2023-03-31T21:21:36.165Z,0.52
2023-03-31T21:24:03.955Z,0.57
2023-03-31T21:26:31.369Z,0.28
2023-03-31T21:28:59.249Z,0.55
2023-03-31T21:31:27.591Z,0.63
2023-03-31T21:33:57.543Z,0.60
2023-03-31T21:36:25.492Z,0.32
2023-03-31T21:38:54.512Z,0.40
2023-03-31T21:41:26.309Z,0.60
2023-03-31T21:43:54.679Z,0.20
2023-03-31T21:46:27.850Z,0.55
2023-03-31T21:48:56.450Z,0.30
2023-03-31T21:51:24.295Z,0.45
2023-03-31T21:53:55.108Z,0.57
2023-03-31T21:56:24.429Z,0.30
2023-03-31T21:58:51.979Z,0.77
2023-03-31T22:01:19.747Z,0.65
2023-03-31T22:03:48.704Z,0.60
2023-03-31T22:06:16.506Z,0.47
2023-03-31T22:08:44.006Z,0.45
2023-03-31T22:11:12.784Z,0.45
2023-03-31T22:13:40.674Z,0.70
2023-03-31T22:16:19.469Z,0.20
2023-03-31T22:18:47.666Z,0.32
2023-03-31T22:21:23.826Z,0.63
2023-03-31T22:23:52.755Z,0.22
2023-03-31T22:26:20.478Z,0.30
2023-03-31T22:28:48.132Z,0.85
2023-03-31T22:31:15.932Z,0.20
2023-03-31T22:33:43.458Z,0.20
2023-03-31T22:36:11.168Z,0.50
2023-03-31T22:38:38.596Z,0.20
2023-03-31T22:41:06.736Z,0.30
2023-03-31T22:43:34.265Z,0.40
2023-03-31T22:46:06.920Z,0.20
2023-03-31T22:48:34.781Z,0.35
2023-03-31T22:51:06.093Z,0.30
2023-03-31T22:53:33.742Z,0.20
2023-03-31T22:56:09.957Z,0.10
2023-03-31T22:58:37.670Z,0.50
2023-03-31T23:01:06.818Z,0.13
2023-03-31T23:03:34.545Z,0.10
2023-03-31T23:06:06.215Z,0.30
2023-03-31T23:08:35.744Z,0.13
2023-03-31T23:11:05.268Z,0.15
2023-03-31T23:13:32.770Z,0.20
2023-03-31T23:16:08.893Z,0.10
2023-03-31T23:18:39.273Z,0.10
2023-03-31T23:21:07.517Z,0.10
2023-03-31T23:23:34.890Z,0.13
2023-03-31T23:26:06.424Z,0.20
2023-03-31T23:28:38.015Z,0.10
2023-03-31T23:31:05.506Z,0.40
2023-03-31T23:33:32.994Z,0.20
2023-03-31T23:36:06.049Z,0.57
2023-03-31T23:38:33.684Z,0.20
2023-03-31T23:41:02.314Z,0.10
2023-03-31T23:43:30.220Z,0.20
2023-03-31T23:45:57.632Z,0.30
2023-03-31T23:48:25.010Z,0.20
2023-03-31T23:50:52.496Z,0.65
2023-03-31T23:53:19.990Z,0.20
2023-03-31T23:55:54.620Z,0.20
2023-03-31T23:58:22.427Z,0.10
